sensor_id;sensor_type;location;lat;lon;timestamp;P1;durP1;ratioP1;P2;durP2;ratioP2
33740;SDS011;20065;48.380;10.892;2023-04-06T00:00:29;14.35;;;8.75;;
33740;SDS011;20065;48.380;10.892;2023-04-06T00:03:15;13.35;;;7.70;;
33740;SDS011;20065;48.380;10.892;2023-04-06T00:06:01;12.70;;;8.32;;
33740;SDS011;20065;48.380;10.892;2023-04-06T00:08:48;15.98;;;8.65;;
33740;SDS011;20065;48.380;10.892;2023-04-06T00:11:35;12.52;;;7.60;;
33740;SDS011;20065;48.380;10.892;2023-04-06T00:14:21;12.63;;;7.85;;
33740;SDS011;20065;48.380;10.892;2023-04-06T00:17:07;14.93;;;8.23;;
33740;SDS011;20065;48.380;10.892;2023-04-06T00:19:53;16.20;;;8.27;;
33740;SDS011;20065;48.380;10.892;2023-04-06T00:22:40;12.38;;;8.73;;
33740;SDS011;20065;48.380;10.892;2023-04-06T00:25:26;16.70;;;9.80;;
33740;SDS011;20065;48.380;10.892;2023-04-06T00:28:12;12.73;;;7.75;;
33740;SDS011;20065;48.380;10.892;2023-04-06T00:30:59;18.40;;;9.60;;
33740;SDS011;20065;48.380;10.892;2023-04-06T00:33:45;17.02;;;9.27;;
33740;SDS011;20065;48.380;10.892;2023-04-06T00:36:31;14.75;;;8.60;;
33740;SDS011;20065;48.380;10.892;2023-04-06T00:39:17;12.25;;;8.27;;
33740;SDS011;20065;48.380;10.892;2023-04-06T00:42:07;16.10;;;10.07;;
33740;SDS011;20065;48.380;10.892;2023-04-06T00:45:01;16.02;;;9.55;;
33740;SDS011;20065;48.380;10.892;2023-04-06T00:47:47;16.98;;;9.90;;
33740;SDS011;20065;48.380;10.892;2023-04-06T00:50:34;17.60;;;9.95;;
33740;SDS011;20065;48.380;10.892;2023-04-06T00:53:20;16.38;;;9.77;;
33740;SDS011;20065;48.380;10.892;2023-04-06T00:56:07;14.50;;;9.40;;
33740;SDS011;20065;48.380;10.892;2023-04-06T00:59:06;16.58;;;10.38;;
33740;SDS011;20065;48.380;10.892;2023-04-06T01:01:53;15.70;;;10.13;;
33740;SDS011;20065;48.380;10.892;2023-04-06T01:04:51;18.88;;;10.65;;
33740;SDS011;20065;48.380;10.892;2023-04-06T01:07:50;15.43;;;9.48;;
33740;SDS011;20065;48.380;10.892;2023-04-06T01:10:41;17.25;;;9.95;;
33740;SDS011;20065;48.380;10.892;2023-04-06T01:13:34;18.33;;;9.70;;
33740;SDS011;20065;48.380;10.892;2023-04-06T01:16:23;13.15;;;9.35;;
33740;SDS011;20065;48.380;10.892;2023-04-06T01:19:36;14.20;;;9.30;;
33740;SDS011;20065;48.380;10.892;2023-04-06T01:22:23;14.30;;;9.50;;
33740;SDS011;20065;48.380;10.892;2023-04-06T01:25:16;14.48;;;9.45;;
33740;SDS011;20065;48.380;10.892;2023-04-06T01:28:22;16.08;;;9.50;;
33740;SDS011;20065;48.380;10.892;2023-04-06T01:31:17;17.88;;;10.23;;
33740;SDS011;20065;48.380;10.892;2023-04-06T01:34:08;15.73;;;9.10;;
33740;SDS011;20065;48.380;10.892;2023-04-06T01:36:55;15.45;;;9.25;;
33740;SDS011;20065;48.380;10.892;2023-04-06T01:39:48;15.88;;;9.95;;
33740;SDS011;20065;48.380;10.892;2023-04-06T01:42:44;13.63;;;9.05;;
33740;SDS011;20065;48.380;10.892;2023-04-06T01:45:35;14.25;;;9.50;;
33740;SDS011;20065;48.380;10.892;2023-04-06T01:48:31;17.08;;;9.75;;
33740;SDS011;20065;48.380;10.892;2023-04-06T01:51:20;18.23;;;9.45;;
33740;SDS011;20065;48.380;10.892;2023-04-06T01:54:12;15.05;;;9.98;;
33740;SDS011;20065;48.380;10.892;2023-04-06T01:57:13;13.38;;;9.60;;
33740;SDS011;20065;48.380;10.892;2023-04-06T02:00:07;15.20;;;9.70;;
33740;SDS011;20065;48.380;10.892;2023-04-06T02:03:02;13.35;;;9.00;;
33740;SDS011;20065;48.380;10.892;2023-04-06T02:05:50;14.13;;;9.45;;
33740;SDS011;20065;48.380;10.892;2023-04-06T02:08:43;18.63;;;10.38;;
33740;SDS011;20065;48.380;10.892;2023-04-06T02:11:29;18.13;;;10.52;;
33740;SDS011;20065;48.380;10.892;2023-04-06T02:14:16;18.58;;;10.05;;
33740;SDS011;20065;48.380;10.892;2023-04-06T02:17:08;15.40;;;9.77;;
33740;SDS011;20065;48.380;10.892;2023-04-06T02:19:55;16.02;;;9.68;;
33740;SDS011;20065;48.380;10.892;2023-04-06T02:22:41;17.70;;;10.70;;
33740;SDS011;20065;48.380;10.892;2023-04-06T02:25:27;19.05;;;9.98;;
33740;SDS011;20065;48.380;10.892;2023-04-06T02:28:13;16.05;;;9.57;;
33740;SDS011;20065;48.380;10.892;2023-04-06T02:31:00;15.60;;;11.05;;
33740;SDS011;20065;48.380;10.892;2023-04-06T02:33:46;15.90;;;9.25;;
33740;SDS011;20065;48.380;10.892;2023-04-06T02:36:34;14.00;;;10.00;;
33740;SDS011;20065;48.380;10.892;2023-04-06T02:39:20;15.48;;;9.30;;
33740;SDS011;20065;48.380;10.892;2023-04-06T02:42:06;15.65;;;10.68;;
33740;SDS011;20065;48.380;10.892;2023-04-06T02:44:54;19.88;;;10.15;;
33740;SDS011;20065;48.380;10.892;2023-04-06T02:47:44;16.27;;;9.15;;
33740;SDS011;20065;48.380;10.892;2023-04-06T02:50:33;17.08;;;10.20;;
33740;SDS011;20065;48.380;10.892;2023-04-06T02:53:23;12.93;;;8.95;;
33740;SDS011;20065;48.380;10.892;2023-04-06T02:56:09;15.25;;;9.35;;
33740;SDS011;20065;48.380;10.892;2023-04-06T02:59:08;17.27;;;10.27;;
33740;SDS011;20065;48.380;10.892;2023-04-06T03:01:55;15.38;;;10.57;;
33740;SDS011;20065;48.380;10.892;2023-04-06T03:04:42;14.57;;;9.55;;
33740;SDS011;20065;48.380;10.892;2023-04-06T03:07:38;15.00;;;9.98;;
33740;SDS011;20065;48.380;10.892;2023-04-06T03:10:29;14.93;;;9.68;;
33740;SDS011;20065;48.380;10.892;2023-04-06T03:13:15;15.07;;;9.35;;
33740;SDS011;20065;48.380;10.892;2023-04-06T03:16:10;19.98;;;10.30;;
33740;SDS011;20065;48.380;10.892;2023-04-06T03:18:57;20.35;;;9.07;;
33740;SDS011;20065;48.380;10.892;2023-04-06T03:21:43;14.90;;;9.10;;
33740;SDS011;20065;48.380;10.892;2023-04-06T03:24:29;15.18;;;9.25;;
33740;SDS011;20065;48.380;10.892;2023-04-06T03:27:15;12.65;;;9.00;;
33740;SDS011;20065;48.380;10.892;2023-04-06T03:30:03;16.98;;;8.70;;
33740;SDS011;20065;48.380;10.892;2023-04-06T03:32:53;14.80;;;9.15;;
33740;SDS011;20065;48.380;10.892;2023-04-06T03:35:42;20.60;;;10.43;;
33740;SDS011;20065;48.380;10.892;2023-04-06T03:38:28;13.95;;;9.55;;
33740;SDS011;20065;48.380;10.892;2023-04-06T03:41:14;14.23;;;10.15;;
33740;SDS011;20065;48.380;10.892;2023-04-06T03:44:06;18.85;;;10.35;;
33740;SDS011;20065;48.380;10.892;2023-04-06T03:46:53;14.98;;;9.00;;
33740;SDS011;20065;48.380;10.892;2023-04-06T03:49:40;16.80;;;10.13;;
33740;SDS011;20065;48.380;10.892;2023-04-06T03:52:29;18.55;;;10.10;;
33740;SDS011;20065;48.380;10.892;2023-04-06T03:55:15;16.42;;;9.57;;
33740;SDS011;20065;48.380;10.892;2023-04-06T03:58:02;17.40;;;10.07;;
33740;SDS011;20065;48.380;10.892;2023-04-06T04:00:49;19.05;;;10.38;;
33740;SDS011;20065;48.380;10.892;2023-04-06T04:03:35;16.65;;;9.98;;
33740;SDS011;20065;48.380;10.892;2023-04-06T04:06:21;13.57;;;9.90;;
33740;SDS011;20065;48.380;10.892;2023-04-06T04:09:08;17.33;;;10.55;;
33740;SDS011;20065;48.380;10.892;2023-04-06T04:11:54;15.57;;;9.05;;
33740;SDS011;20065;48.380;10.892;2023-04-06T04:14:40;18.67;;;10.48;;
33740;SDS011;20065;48.380;10.892;2023-04-06T04:17:26;18.92;;;11.65;;
33740;SDS011;20065;48.380;10.892;2023-04-06T04:20:12;19.20;;;11.25;;
33740;SDS011;20065;48.380;10.892;2023-04-06T04:22:59;15.30;;;10.02;;
33740;SDS011;20065;48.380;10.892;2023-04-06T04:25:45;16.73;;;11.82;;
33740;SDS011;20065;48.380;10.892;2023-04-06T04:28:32;17.02;;;10.90;;
33740;SDS011;20065;48.380;10.892;2023-04-06T04:31:18;16.45;;;11.07;;
33740;SDS011;20065;48.380;10.892;2023-04-06T04:34:10;17.20;;;10.95;;
33740;SDS011;20065;48.380;10.892;2023-04-06T04:36:57;18.77;;;11.43;;
33740;SDS011;20065;48.380;10.892;2023-04-06T04:39:55;20.80;;;12.20;;
33740;SDS011;20065;48.380;10.892;2023-04-06T04:42:41;18.45;;;10.48;;
33740;SDS011;20065;48.380;10.892;2023-04-06T04:45:32;17.08;;;9.00;;
33740;SDS011;20065;48.380;10.892;2023-04-06T04:48:24;16.58;;;10.40;;
33740;SDS011;20065;48.380;10.892;2023-04-06T04:51:19;23.25;;;9.85;;
33740;SDS011;20065;48.380;10.892;2023-04-06T04:54:23;15.85;;;9.40;;
33740;SDS011;20065;48.380;10.892;2023-04-06T04:57:09;16.85;;;9.10;;
33740;SDS011;20065;48.380;10.892;2023-04-06T05:00:03;16.15;;;8.90;;
33740;SDS011;20065;48.380;10.892;2023-04-06T05:02:51;16.60;;;8.95;;
33740;SDS011;20065;48.380;10.892;2023-04-06T05:05:42;15.98;;;9.55;;
33740;SDS011;20065;48.380;10.892;2023-04-06T05:08:28;13.30;;;9.48;;
33740;SDS011;20065;48.380;10.892;2023-04-06T05:11:15;21.35;;;9.10;;
33740;SDS011;20065;48.380;10.892;2023-04-06T05:14:05;16.17;;;9.20;;
33740;SDS011;20065;48.380;10.892;2023-04-06T05:16:51;20.90;;;9.45;;
33740;SDS011;20065;48.380;10.892;2023-04-06T05:19:39;15.70;;;9.02;;
33740;SDS011;20065;48.380;10.892;2023-04-06T05:22:25;12.05;;;8.43;;
33740;SDS011;20065;48.380;10.892;2023-04-06T05:25:22;18.90;;;9.20;;
33740;SDS011;20065;48.380;10.892;2023-04-06T05:28:11;13.20;;;8.45;;
33740;SDS011;20065;48.380;10.892;2023-04-06T05:30:59;18.65;;;9.48;;
33740;SDS011;20065;48.380;10.892;2023-04-06T05:33:51;17.45;;;9.20;;
33740;SDS011;20065;48.380;10.892;2023-04-06T05:36:48;14.65;;;8.65;;
33740;SDS011;20065;48.380;10.892;2023-04-06T05:39:38;17.23;;;10.02;;
33740;SDS011;20065;48.380;10.892;2023-04-06T05:42:25;14.70;;;9.23;;
33740;SDS011;20065;48.380;10.892;2023-04-06T05:45:16;21.83;;;9.35;;
33740;SDS011;20065;48.380;10.892;2023-04-06T05:48:08;17.88;;;10.55;;
33740;SDS011;20065;48.380;10.892;2023-04-06T05:50:54;22.35;;;12.05;;
33740;SDS011;20065;48.380;10.892;2023-04-06T05:53:47;20.85;;;11.25;;
33740;SDS011;20065;48.380;10.892;2023-04-06T05:56:33;21.02;;;11.27;;
33740;SDS011;20065;48.380;10.892;2023-04-06T05:59:21;19.65;;;11.35;;
33740;SDS011;20065;48.380;10.892;2023-04-06T06:02:07;22.63;;;12.93;;
33740;SDS011;20065;48.380;10.892;2023-04-06T06:04:59;22.05;;;11.48;;
33740;SDS011;20065;48.380;10.892;2023-04-06T06:07:45;18.30;;;10.02;;
33740;SDS011;20065;48.380;10.892;2023-04-06T06:10:32;19.48;;;11.85;;
33740;SDS011;20065;48.380;10.892;2023-04-06T06:13:18;20.65;;;11.82;;
33740;SDS011;20065;48.380;10.892;2023-04-06T06:16:05;19.65;;;12.10;;
33740;SDS011;20065;48.380;10.892;2023-04-06T06:18:55;17.35;;;10.27;;
33740;SDS011;20065;48.380;10.892;2023-04-06T06:21:41;16.83;;;10.65;;
33740;SDS011;20065;48.380;10.892;2023-04-06T06:24:28;18.73;;;12.18;;
33740;SDS011;20065;48.380;10.892;2023-04-06T06:27:15;26.20;;;12.07;;
33740;SDS011;20065;48.380;10.892;2023-04-06T06:30:02;19.55;;;11.88;;
33740;SDS011;20065;48.380;10.892;2023-04-06T06:32:50;27.90;;;12.05;;
33740;SDS011;20065;48.380;10.892;2023-04-06T06:35:38;22.13;;;12.52;;
33740;SDS011;20065;48.380;10.892;2023-04-06T06:38:25;15.52;;;10.43;;
33740;SDS011;20065;48.380;10.892;2023-04-06T06:41:11;17.60;;;9.27;;
33740;SDS011;20065;48.380;10.892;2023-04-06T06:43:58;19.65;;;10.90;;
33740;SDS011;20065;48.380;10.892;2023-04-06T06:46:45;17.40;;;9.27;;
33740;SDS011;20065;48.380;10.892;2023-04-06T06:49:31;17.77;;;10.50;;
33740;SDS011;20065;48.380;10.892;2023-04-06T06:52:17;19.90;;;12.30;;
33740;SDS011;20065;48.380;10.892;2023-04-06T06:55:04;18.10;;;11.07;;
33740;SDS011;20065;48.380;10.892;2023-04-06T06:57:50;17.60;;;10.55;;
33740;SDS011;20065;48.380;10.892;2023-04-06T07:00:37;23.23;;;10.55;;
33740;SDS011;20065;48.380;10.892;2023-04-06T07:03:24;17.65;;;10.05;;
33740;SDS011;20065;48.380;10.892;2023-04-06T07:06:10;18.20;;;11.20;;
33740;SDS011;20065;48.380;10.892;2023-04-06T07:08:59;23.58;;;11.77;;
33740;SDS011;20065;48.380;10.892;2023-04-06T07:11:45;21.25;;;11.05;;
33740;SDS011;20065;48.380;10.892;2023-04-06T07:14:31;15.88;;;10.50;;
33740;SDS011;20065;48.380;10.892;2023-04-06T07:17:17;19.75;;;10.98;;
33740;SDS011;20065;48.380;10.892;2023-04-06T07:20:04;16.35;;;10.50;;
33740;SDS011;20065;48.380;10.892;2023-04-06T07:22:51;15.75;;;10.70;;
33740;SDS011;20065;48.380;10.892;2023-04-06T07:25:37;17.63;;;10.65;;
33740;SDS011;20065;48.380;10.892;2023-04-06T07:28:23;14.35;;;10.30;;
33740;SDS011;20065;48.380;10.892;2023-04-06T07:31:10;17.10;;;10.00;;
33740;SDS011;20065;48.380;10.892;2023-04-06T07:33:56;19.00;;;9.70;;
33740;SDS011;20065;48.380;10.892;2023-04-06T07:36:43;15.02;;;10.50;;
33740;SDS011;20065;48.380;10.892;2023-04-06T07:39:29;17.80;;;10.25;;
33740;SDS011;20065;48.380;10.892;2023-04-06T07:42:16;13.07;;;9.43;;
33740;SDS011;20065;48.380;10.892;2023-04-06T07:45:03;19.30;;;12.60;;
33740;SDS011;20065;48.380;10.892;2023-04-06T07:47:50;15.85;;;9.68;;
33740;SDS011;20065;48.380;10.892;2023-04-06T07:50:36;20.88;;;12.80;;
33740;SDS011;20065;48.380;10.892;2023-04-06T07:53:24;17.65;;;9.70;;
33740;SDS011;20065;48.380;10.892;2023-04-06T07:56:10;15.15;;;10.10;;
33740;SDS011;20065;48.380;10.892;2023-04-06T07:58:57;14.35;;;9.90;;
33740;SDS011;20065;48.380;10.892;2023-04-06T08:01:44;23.15;;;10.20;;
33740;SDS011;20065;48.380;10.892;2023-04-06T08:04:30;14.65;;;9.18;;
33740;SDS011;20065;48.380;10.892;2023-04-06T08:07:17;15.57;;;10.65;;
33740;SDS011;20065;48.380;10.892;2023-04-06T08:10:03;19.13;;;10.45;;
33740;SDS011;20065;48.380;10.892;2023-04-06T08:12:49;14.13;;;10.50;;
33740;SDS011;20065;48.380;10.892;2023-04-06T08:15:36;16.85;;;10.45;;
33740;SDS011;20065;48.380;10.892;2023-04-06T08:18:23;16.90;;;10.73;;
33740;SDS011;20065;48.380;10.892;2023-04-06T08:21:09;21.23;;;11.75;;
33740;SDS011;20065;48.380;10.892;2023-04-06T08:23:55;17.42;;;10.30;;
33740;SDS011;20065;48.380;10.892;2023-04-06T08:26:41;18.77;;;11.57;;
33740;SDS011;20065;48.380;10.892;2023-04-06T08:29:28;16.38;;;10.88;;
33740;SDS011;20065;48.380;10.892;2023-04-06T08:32:14;20.55;;;10.85;;
33740;SDS011;20065;48.380;10.892;2023-04-06T08:35:00;18.35;;;10.70;;
33740;SDS011;20065;48.380;10.892;2023-04-06T08:37:50;19.05;;;10.38;;
33740;SDS011;20065;48.380;10.892;2023-04-06T08:40:36;16.30;;;10.65;;
33740;SDS011;20065;48.380;10.892;2023-04-06T08:43:23;18.10;;;11.20;;
33740;SDS011;20065;48.380;10.892;2023-04-06T08:46:12;16.60;;;9.70;;
33740;SDS011;20065;48.380;10.892;2023-04-06T08:49:03;14.07;;;9.25;;
33740;SDS011;20065;48.380;10.892;2023-04-06T08:51:52;14.38;;;9.80;;
33740;SDS011;20065;48.380;10.892;2023-04-06T08:54:43;14.73;;;8.90;;
33740;SDS011;20065;48.380;10.892;2023-04-06T08:57:29;17.27;;;9.18;;
33740;SDS011;20065;48.380;10.892;2023-04-06T09:00:17;17.30;;;10.18;;
33740;SDS011;20065;48.380;10.892;2023-04-06T09:03:04;16.85;;;10.20;;
33740;SDS011;20065;48.380;10.892;2023-04-06T09:05:52;16.30;;;10.10;;
33740;SDS011;20065;48.380;10.892;2023-04-06T09:08:40;17.70;;;10.73;;
33740;SDS011;20065;48.380;10.892;2023-04-06T09:11:26;18.48;;;9.40;;
33740;SDS011;20065;48.380;10.892;2023-04-06T09:14:13;12.75;;;8.73;;
33740;SDS011;20065;48.380;10.892;2023-04-06T09:17:02;18.27;;;10.05;;
33740;SDS011;20065;48.380;10.892;2023-04-06T09:19:49;16.10;;;9.10;;
33740;SDS011;20065;48.380;10.892;2023-04-06T09:22:38;19.83;;;10.75;;
33740;SDS011;20065;48.380;10.892;2023-04-06T09:25:25;14.68;;;10.18;;
33740;SDS011;20065;48.380;10.892;2023-04-06T09:28:12;16.48;;;9.55;;
33740;SDS011;20065;48.380;10.892;2023-04-06T09:31:00;14.85;;;9.77;;
33740;SDS011;20065;48.380;10.892;2023-04-06T09:33:46;13.83;;;9.20;;
33740;SDS011;20065;48.380;10.892;2023-04-06T09:36:33;15.00;;;9.63;;
33740;SDS011;20065;48.380;10.892;2023-04-06T09:39:25;14.90;;;9.20;;
33740;SDS011;20065;48.380;10.892;2023-04-06T09:45:18;15.70;;;9.67;;
33740;SDS011;20065;48.380;10.892;2023-04-06T09:48:04;15.43;;;9.57;;
33740;SDS011;20065;48.380;10.892;2023-04-06T09:50:53;12.93;;;8.70;;
33740;SDS011;20065;48.380;10.892;2023-04-06T09:53:45;13.13;;;8.63;;
33740;SDS011;20065;48.380;10.892;2023-04-06T09:57:22;17.67;;;9.47;;
33740;SDS011;20065;48.380;10.892;2023-04-06T10:06:23;12.23;;;7.67;;
33740;SDS011;20065;48.380;10.892;2023-04-06T10:09:13;12.80;;;8.70;;
33740;SDS011;20065;48.380;10.892;2023-04-06T10:12:01;12.80;;;8.90;;
33740;SDS011;20065;48.380;10.892;2023-04-06T10:14:49;16.33;;;9.67;;
33740;SDS011;20065;48.380;10.892;2023-04-06T10:17:37;16.30;;;10.60;;
33740;SDS011;20065;48.380;10.892;2023-04-06T10:20:42;15.30;;;9.80;;
33740;SDS011;20065;48.380;10.892;2023-04-06T10:23:31;13.43;;;9.20;;
33740;SDS011;20065;48.380;10.892;2023-04-06T10:26:20;11.97;;;8.97;;
33740;SDS011;20065;48.380;10.892;2023-04-06T10:29:07;14.70;;;9.33;;
33740;SDS011;20065;48.380;10.892;2023-04-06T10:31:53;12.70;;;9.30;;
33740;SDS011;20065;48.380;10.892;2023-04-06T10:34:40;12.80;;;9.10;;
33740;SDS011;20065;48.380;10.892;2023-04-06T10:37:27;14.83;;;9.33;;
33740;SDS011;20065;48.380;10.892;2023-04-06T10:40:42;13.27;;;9.50;;
33740;SDS011;20065;48.380;10.892;2023-04-06T10:43:32;14.60;;;8.10;;
33740;SDS011;20065;48.380;10.892;2023-04-06T10:46:29;12.43;;;7.97;;
33740;SDS011;20065;48.380;10.892;2023-04-06T10:49:16;12.83;;;8.83;;
33740;SDS011;20065;48.380;10.892;2023-04-06T10:52:02;11.90;;;8.60;;
33740;SDS011;20065;48.380;10.892;2023-04-06T10:54:48;12.50;;;8.97;;
33740;SDS011;20065;48.380;10.892;2023-04-06T10:57:36;10.77;;;8.40;;
33740;SDS011;20065;48.380;10.892;2023-04-06T11:00:23;12.07;;;8.77;;
33740;SDS011;20065;48.380;10.892;2023-04-06T11:03:10;10.80;;;8.17;;
33740;SDS011;20065;48.380;10.892;2023-04-06T11:05:56;11.97;;;8.60;;
33740;SDS011;20065;48.380;10.892;2023-04-06T11:08:42;13.77;;;8.00;;
33740;SDS011;20065;48.380;10.892;2023-04-06T11:11:28;9.50;;;5.93;;
33740;SDS011;20065;48.380;10.892;2023-04-06T11:14:14;7.53;;;4.70;;
33740;SDS011;20065;48.380;10.892;2023-04-06T11:17:00;8.80;;;6.27;;
33740;SDS011;20065;48.380;10.892;2023-04-06T11:19:47;10.40;;;6.73;;
33740;SDS011;20065;48.380;10.892;2023-04-06T11:22:33;13.67;;;6.40;;
33740;SDS011;20065;48.380;10.892;2023-04-06T11:25:19;8.97;;;6.30;;
33740;SDS011;20065;48.380;10.892;2023-04-06T11:28:05;11.30;;;6.67;;
33740;SDS011;20065;48.380;10.892;2023-04-06T11:30:52;8.90;;;5.97;;
33740;SDS011;20065;48.380;10.892;2023-04-06T11:33:38;9.80;;;6.67;;
33740;SDS011;20065;48.380;10.892;2023-04-06T11:36:27;7.43;;;5.10;;
33740;SDS011;20065;48.380;10.892;2023-04-06T11:39:19;7.60;;;5.10;;
33740;SDS011;20065;48.380;10.892;2023-04-06T11:42:08;10.57;;;5.90;;
33740;SDS011;20065;48.380;10.892;2023-04-06T11:44:56;10.30;;;6.17;;
33740;SDS011;20065;48.380;10.892;2023-04-06T11:47:43;9.90;;;5.60;;
33740;SDS011;20065;48.380;10.892;2023-04-06T11:50:32;8.43;;;5.53;;
33740;SDS011;20065;48.380;10.892;2023-04-06T11:53:21;7.00;;;5.40;;
33740;SDS011;20065;48.380;10.892;2023-04-06T11:56:07;7.20;;;5.30;;
33740;SDS011;20065;48.380;10.892;2023-04-06T11:58:54;8.03;;;5.73;;
33740;SDS011;20065;48.380;10.892;2023-04-06T12:01:45;8.80;;;5.67;;
33740;SDS011;20065;48.380;10.892;2023-04-06T12:04:31;7.20;;;4.90;;
33740;SDS011;20065;48.380;10.892;2023-04-06T12:07:18;7.77;;;4.77;;
33740;SDS011;20065;48.380;10.892;2023-04-06T12:10:05;8.57;;;5.10;;
33740;SDS011;20065;48.380;10.892;2023-04-06T12:12:51;9.03;;;6.27;;
33740;SDS011;20065;48.380;10.892;2023-04-06T12:15:37;8.87;;;6.27;;
33740;SDS011;20065;48.380;10.892;2023-04-06T12:18:24;9.17;;;6.20;;
33740;SDS011;20065;48.380;10.892;2023-04-06T12:21:10;9.73;;;5.40;;
33740;SDS011;20065;48.380;10.892;2023-04-06T12:23:59;9.43;;;6.03;;
33740;SDS011;20065;48.380;10.892;2023-04-06T12:26:46;8.17;;;6.20;;
33740;SDS011;20065;48.380;10.892;2023-04-06T12:29:32;8.63;;;5.80;;
33740;SDS011;20065;48.380;10.892;2023-04-06T12:32:18;12.43;;;6.43;;
33740;SDS011;20065;48.380;10.892;2023-04-06T12:35:05;9.87;;;7.00;;
33740;SDS011;20065;48.380;10.892;2023-04-06T12:37:51;10.40;;;6.47;;
33740;SDS011;20065;48.380;10.892;2023-04-06T12:40:37;9.80;;;6.20;;
33740;SDS011;20065;48.380;10.892;2023-04-06T12:43:24;7.40;;;5.90;;
33740;SDS011;20065;48.380;10.892;2023-04-06T12:46:10;8.17;;;5.70;;
33740;SDS011;20065;48.380;10.892;2023-04-06T12:48:57;8.40;;;6.10;;
33740;SDS011;20065;48.380;10.892;2023-04-06T12:51:44;8.67;;;5.20;;
33740;SDS011;20065;48.380;10.892;2023-04-06T12:54:31;9.77;;;5.40;;
33740;SDS011;20065;48.380;10.892;2023-04-06T12:57:17;6.50;;;4.53;;
33740;SDS011;20065;48.380;10.892;2023-04-06T13:00:04;7.80;;;4.63;;
33740;SDS011;20065;48.380;10.892;2023-04-06T13:02:51;7.03;;;5.00;;
33740;SDS011;20065;48.380;10.892;2023-04-06T13:05:43;9.93;;;5.03;;
33740;SDS011;20065;48.380;10.892;2023-04-06T13:08:32;7.40;;;5.20;;
33740;SDS011;20065;48.380;10.892;2023-04-06T13:11:18;7.07;;;5.00;;
33740;SDS011;20065;48.380;10.892;2023-04-06T13:14:07;9.53;;;5.90;;
33740;SDS011;20065;48.380;10.892;2023-04-06T13:16:54;9.50;;;6.53;;
33740;SDS011;20065;48.380;10.892;2023-04-06T13:19:40;10.03;;;5.80;;
33740;SDS011;20065;48.380;10.892;2023-04-06T13:22:26;11.10;;;6.10;;
33740;SDS011;20065;48.380;10.892;2023-04-06T13:25:12;8.67;;;5.67;;
33740;SDS011;20065;48.380;10.892;2023-04-06T13:27:58;7.73;;;5.47;;
33740;SDS011;20065;48.380;10.892;2023-04-06T13:30:47;7.03;;;5.30;;
33740;SDS011;20065;48.380;10.892;2023-04-06T13:33:34;6.20;;;4.00;;
33740;SDS011;20065;48.380;10.892;2023-04-06T13:36:21;7.00;;;5.03;;
33740;SDS011;20065;48.380;10.892;2023-04-06T13:39:08;7.10;;;4.50;;
33740;SDS011;20065;48.380;10.892;2023-04-06T13:41:54;5.90;;;4.23;;
33740;SDS011;20065;48.380;10.892;2023-04-06T13:44:41;9.60;;;4.40;;
33740;SDS011;20065;48.380;10.892;2023-04-06T13:47:28;9.80;;;4.97;;
33740;SDS011;20065;48.380;10.892;2023-04-06T13:50:15;8.07;;;5.00;;
33740;SDS011;20065;48.380;10.892;2023-04-06T13:53:01;6.30;;;4.80;;
33740;SDS011;20065;48.380;10.892;2023-04-06T13:55:54;6.93;;;4.40;;
33740;SDS011;20065;48.380;10.892;2023-04-06T13:58:40;7.40;;;5.40;;
33740;SDS011;20065;48.380;10.892;2023-04-06T14:01:27;8.60;;;5.27;;
33740;SDS011;20065;48.380;10.892;2023-04-06T14:04:14;8.07;;;5.20;;
33740;SDS011;20065;48.380;10.892;2023-04-06T14:07:00;7.77;;;5.50;;
33740;SDS011;20065;48.380;10.892;2023-04-06T14:09:48;6.80;;;4.53;;
33740;SDS011;20065;48.380;10.892;2023-04-06T14:12:34;6.80;;;5.30;;
33740;SDS011;20065;48.380;10.892;2023-04-06T14:15:20;7.50;;;5.03;;
33740;SDS011;20065;48.380;10.892;2023-04-06T14:18:08;7.40;;;5.70;;
33740;SDS011;20065;48.380;10.892;2023-04-06T14:20:56;8.07;;;5.90;;
33740;SDS011;20065;48.380;10.892;2023-04-06T14:23:44;8.10;;;5.33;;
33740;SDS011;20065;48.380;10.892;2023-04-06T14:26:31;6.00;;;4.70;;
33740;SDS011;20065;48.380;10.892;2023-04-06T14:29:17;8.30;;;5.47;;
33740;SDS011;20065;48.380;10.892;2023-04-06T14:32:06;7.00;;;5.20;;
33740;SDS011;20065;48.380;10.892;2023-04-06T14:34:53;7.10;;;4.97;;
33740;SDS011;20065;48.380;10.892;2023-04-06T14:37:39;7.10;;;5.17;;
33740;SDS011;20065;48.380;10.892;2023-04-06T14:40:25;9.00;;;4.90;;
33740;SDS011;20065;48.380;10.892;2023-04-06T14:43:13;10.17;;;5.83;;
33740;SDS011;20065;48.380;10.892;2023-04-06T14:46:00;7.90;;;6.10;;
33740;SDS011;20065;48.380;10.892;2023-04-06T14:48:47;7.80;;;5.00;;
33740;SDS011;20065;48.380;10.892;2023-04-06T14:51:34;8.37;;;5.20;;
33740;SDS011;20065;48.380;10.892;2023-04-06T14:54:24;6.70;;;5.10;;
33740;SDS011;20065;48.380;10.892;2023-04-06T14:57:10;7.10;;;4.93;;
33740;SDS011;20065;48.380;10.892;2023-04-06T14:59:56;9.07;;;5.43;;
33740;SDS011;20065;48.380;10.892;2023-04-06T15:02:42;8.13;;;5.50;;
33740;SDS011;20065;48.380;10.892;2023-04-06T15:05:29;7.03;;;5.40;;
33740;SDS011;20065;48.380;10.892;2023-04-06T15:08:18;6.73;;;4.93;;
33740;SDS011;20065;48.380;10.892;2023-04-06T15:11:06;7.27;;;5.00;;
33740;SDS011;20065;48.380;10.892;2023-04-06T15:13:52;8.03;;;5.70;;
33740;SDS011;20065;48.380;10.892;2023-04-06T15:16:38;8.10;;;5.27;;
33740;SDS011;20065;48.380;10.892;2023-04-06T15:19:25;9.33;;;6.43;;
33740;SDS011;20065;48.380;10.892;2023-04-06T15:22:12;8.70;;;6.40;;
33740;SDS011;20065;48.380;10.892;2023-04-06T15:24:58;9.97;;;6.10;;
33740;SDS011;20065;48.380;10.892;2023-04-06T15:27:44;9.30;;;6.00;;
33740;SDS011;20065;48.380;10.892;2023-04-06T15:30:31;8.63;;;5.73;;
33740;SDS011;20065;48.380;10.892;2023-04-06T15:33:17;10.00;;;6.30;;
33740;SDS011;20065;48.380;10.892;2023-04-06T15:36:06;7.53;;;5.10;;
33740;SDS011;20065;48.380;10.892;2023-04-06T15:39:10;9.10;;;6.13;;
33740;SDS011;20065;48.380;10.892;2023-04-06T15:41:58;8.47;;;5.57;;
33740;SDS011;20065;48.380;10.892;2023-04-06T15:44:45;8.03;;;6.10;;
33740;SDS011;20065;48.380;10.892;2023-04-06T15:47:32;8.17;;;5.87;;
33740;SDS011;20065;48.380;10.892;2023-04-06T15:50:20;7.50;;;5.70;;
33740;SDS011;20065;48.380;10.892;2023-04-06T15:53:10;8.37;;;5.40;;
33740;SDS011;20065;48.380;10.892;2023-04-06T15:56:00;8.43;;;5.10;;
33740;SDS011;20065;48.380;10.892;2023-04-06T15:58:47;11.00;;;6.17;;
33740;SDS011;20065;48.380;10.892;2023-04-06T16:01:38;7.23;;;4.80;;
33740;SDS011;20065;48.380;10.892;2023-04-06T16:04:26;8.73;;;5.13;;
33740;SDS011;20065;48.380;10.892;2023-04-06T16:07:12;6.63;;;5.07;;
33740;SDS011;20065;48.380;10.892;2023-04-06T16:09:59;7.80;;;5.60;;
33740;SDS011;20065;48.380;10.892;2023-04-06T16:12:45;8.57;;;5.87;;
33740;SDS011;20065;48.380;10.892;2023-04-06T16:15:31;9.43;;;6.37;;
33740;SDS011;20065;48.380;10.892;2023-04-06T16:18:18;12.30;;;7.10;;
33740;SDS011;20065;48.380;10.892;2023-04-06T16:21:04;9.60;;;5.57;;
33740;SDS011;20065;48.380;10.892;2023-04-06T16:23:51;10.00;;;5.70;;
33740;SDS011;20065;48.380;10.892;2023-04-06T16:26:37;9.13;;;6.40;;
33740;SDS011;20065;48.380;10.892;2023-04-06T16:29:24;7.80;;;5.70;;
33740;SDS011;20065;48.380;10.892;2023-04-06T16:32:16;12.10;;;5.30;;